sensor_id;sensor_type;location;lat;lon;timestamp;temperature;humidity
19898;DHT22;10111;50.814;4.572;2023-05-19T00:01:06;9.00;99.90
19898;DHT22;10111;50.814;4.572;2023-05-19T00:03:35;8.90;99.90
19898;DHT22;10111;50.814;4.572;2023-05-19T00:06:05;8.90;99.90
19898;DHT22;10111;50.814;4.572;2023-05-19T00:08:34;8.90;99.90
19898;DHT22;10111;50.814;4.572;2023-05-19T00:11:02;8.90;99.90
19898;DHT22;10111;50.814;4.572;2023-05-19T00:13:28;8.90;99.90
19898;DHT22;10111;50.814;4.572;2023-05-19T00:15:54;8.80;99.90
19898;DHT22;10111;50.814;4.572;2023-05-19T00:18:20;8.80;99.90
19898;DHT22;10111;50.814;4.572;2023-05-19T00:20:47;8.80;99.90
19898;DHT22;10111;50.814;4.572;2023-05-19T00:23:13;8.80;99.90
19898;DHT22;10111;50.814;4.572;2023-05-19T00:25:39;8.70;99.90
19898;DHT22;10111;50.814;4.572;2023-05-19T00:28:04;8.70;99.90
19898;DHT22;10111;50.814;4.572;2023-05-19T00:30:30;8.70;99.90
19898;DHT22;10111;50.814;4.572;2023-05-19T00:32:56;8.70;99.90
19898;DHT22;10111;50.814;4.572;2023-05-19T00:35:22;8.70;99.90
19898;DHT22;10111;50.814;4.572;2023-05-19T00:37:48;8.60;99.90
19898;DHT22;10111;50.814;4.572;2023-05-19T00:40:14;8.60;99.90
19898;DHT22;10111;50.814;4.572;2023-05-19T00:42:40;8.70;99.90
19898;DHT22;10111;50.814;4.572;2023-05-19T00:45:06;8.60;99.90
19898;DHT22;10111;50.814;4.572;2023-05-19T00:47:32;8.60;99.90
19898;DHT22;10111;50.814;4.572;2023-05-19T00:49:58;8.60;99.90
19898;DHT22;10111;50.814;4.572;2023-05-19T00:52:24;8.60;99.90
19898;DHT22;10111;50.814;4.572;2023-05-19T00:54:51;8.50;99.90
19898;DHT22;10111;50.814;4.572;2023-05-19T00:57:17;8.50;99.90
19898;DHT22;10111;50.814;4.572;2023-05-19T00:59:43;8.50;99.90
19898;DHT22;10111;50.814;4.572;2023-05-19T01:02:09;8.40;99.90
19898;DHT22;10111;50.814;4.572;2023-05-19T01:04:35;8.40;99.90
19898;DHT22;10111;50.814;4.572;2023-05-19T01:07:02;8.40;99.90
19898;DHT22;10111;50.814;4.572;2023-05-19T01:09:27;8.40;99.90
19898;DHT22;10111;50.814;4.572;2023-05-19T01:11:54;8.30;99.90
19898;DHT22;10111;50.814;4.572;2023-05-19T01:14:20;8.30;99.90
19898;DHT22;10111;50.814;4.572;2023-05-19T01:27:46;8.20;99.90
19898;DHT22;10111;50.814;4.572;2023-05-19T01:33:03;8.20;99.90
19898;DHT22;10111;50.814;4.572;2023-05-19T01:35:31;8.10;99.90
19898;DHT22;10111;50.814;4.572;2023-05-19T01:37:59;8.10;99.90
19898;DHT22;10111;50.814;4.572;2023-05-19T01:40:26;8.10;99.90
19898;DHT22;10111;50.814;4.572;2023-05-19T01:42:55;8.00;99.90
19898;DHT22;10111;50.814;4.572;2023-05-19T01:45:22;8.00;99.90
19898;DHT22;10111;50.814;4.572;2023-05-19T01:47:52;7.90;99.90
19898;DHT22;10111;50.814;4.572;2023-05-19T01:50:19;7.90;99.90
19898;DHT22;10111;50.814;4.572;2023-05-19T01:52:45;7.90;99.90
19898;DHT22;10111;50.814;4.572;2023-05-19T01:55:10;7.90;99.90
19898;DHT22;10111;50.814;4.572;2023-05-19T02:00:51;7.80;99.90
19898;DHT22;10111;50.814;4.572;2023-05-19T02:08:50;7.80;99.90
19898;DHT22;10111;50.814;4.572;2023-05-19T02:11:41;7.80;99.90
19898;DHT22;10111;50.814;4.572;2023-05-19T02:14:14;7.70;99.90
19898;DHT22;10111;50.814;4.572;2023-05-19T02:16:44;7.70;99.90
19898;DHT22;10111;50.814;4.572;2023-05-19T02:19:31;7.70;99.90
19898;DHT22;10111;50.814;4.572;2023-05-19T02:21:58;7.70;99.90
19898;DHT22;10111;50.814;4.572;2023-05-19T02:24:23;7.70;99.90
19898;DHT22;10111;50.814;4.572;2023-05-19T02:26:50;7.60;99.90
19898;DHT22;10111;50.814;4.572;2023-05-19T02:29:16;7.50;99.90
19898;DHT22;10111;50.814;4.572;2023-05-19T02:31:42;7.50;99.90
19898;DHT22;10111;50.814;4.572;2023-05-19T02:34:08;7.50;99.90
19898;DHT22;10111;50.814;4.572;2023-05-19T02:36:34;7.50;99.90
19898;DHT22;10111;50.814;4.572;2023-05-19T02:39:03;7.50;99.90
19898;DHT22;10111;50.814;4.572;2023-05-19T02:41:29;7.40;99.90
19898;DHT22;10111;50.814;4.572;2023-05-19T02:43:55;7.40;99.90
19898;DHT22;10111;50.814;4.572;2023-05-19T02:46:22;7.40;99.90
19898;DHT22;10111;50.814;4.572;2023-05-19T02:48:49;7.30;99.90
19898;DHT22;10111;50.814;4.572;2023-05-19T02:51:14;7.30;99.90
19898;DHT22;10111;50.814;4.572;2023-05-19T02:53:40;7.30;99.90
19898;DHT22;10111;50.814;4.572;2023-05-19T02:56:06;7.30;99.90
19898;DHT22;10111;50.814;4.572;2023-05-19T02:58:31;7.20;99.90
19898;DHT22;10111;50.814;4.572;2023-05-19T03:00:57;7.20;99.90
19898;DHT22;10111;50.814;4.572;2023-05-19T03:03:22;7.20;99.90
19898;DHT22;10111;50.814;4.572;2023-05-19T03:05:48;7.20;99.90
19898;DHT22;10111;50.814;4.572;2023-05-19T03:08:14;7.20;99.90
19898;DHT22;10111;50.814;4.572;2023-05-19T03:10:39;7.10;99.90
19898;DHT22;10111;50.814;4.572;2023-05-19T03:13:05;7.10;99.90
19898;DHT22;10111;50.814;4.572;2023-05-19T03:15:31;7.10;99.90
19898;DHT22;10111;50.814;4.572;2023-05-19T03:17:57;7.10;99.90
19898;DHT22;10111;50.814;4.572;2023-05-19T03:20:23;7.00;99.90
19898;DHT22;10111;50.814;4.572;2023-05-19T03:22:49;7.00;99.90
19898;DHT22;10111;50.814;4.572;2023-05-19T03:25:15;7.00;99.90
19898;DHT22;10111;50.814;4.572;2023-05-19T03:27:41;7.00;99.90
19898;DHT22;10111;50.814;4.572;2023-05-19T03:30:07;6.90;99.90
19898;DHT22;10111;50.814;4.572;2023-05-19T03:32:33;6.90;99.90
19898;DHT22;10111;50.814;4.572;2023-05-19T03:35:02;6.90;99.90
19898;DHT22;10111;50.814;4.572;2023-05-19T03:37:29;6.90;99.90
19898;DHT22;10111;50.814;4.572;2023-05-19T03:39:55;6.90;99.90
19898;DHT22;10111;50.814;4.572;2023-05-19T03:42:20;6.80;99.90
19898;DHT22;10111;50.814;4.572;2023-05-19T03:44:46;6.80;99.90
19898;DHT22;10111;50.814;4.572;2023-05-19T03:47:12;6.80;99.90
19898;DHT22;10111;50.814;4.572;2023-05-19T03:49:37;6.80;99.90
19898;DHT22;10111;50.814;4.572;2023-05-19T03:52:03;6.70;99.90
19898;DHT22;10111;50.814;4.572;2023-05-19T03:54:29;6.70;99.90
19898;DHT22;10111;50.814;4.572;2023-05-19T03:56:54;6.70;99.90
19898;DHT22;10111;50.814;4.572;2023-05-19T03:59:20;6.70;99.90
19898;DHT22;10111;50.814;4.572;2023-05-19T04:01:48;6.70;99.90
19898;DHT22;10111;50.814;4.572;2023-05-19T04:04:13;6.70;99.90
19898;DHT22;10111;50.814;4.572;2023-05-19T04:06:39;6.70;99.90
19898;DHT22;10111;50.814;4.572;2023-05-19T04:09:11;6.70;99.90
19898;DHT22;10111;50.814;4.572;2023-05-19T04:11:38;6.80;99.90
19898;DHT22;10111;50.814;4.572;2023-05-19T04:14:04;6.80;99.90
19898;DHT22;10111;50.814;4.572;2023-05-19T04:16:30;6.80;99.90
19898;DHT22;10111;50.814;4.572;2023-05-19T04:18:55;6.80;99.90
19898;DHT22;10111;50.814;4.572;2023-05-19T04:21:21;6.80;99.90
19898;DHT22;10111;50.814;4.572;2023-05-19T04:23:47;6.90;99.90
19898;DHT22;10111;50.814;4.572;2023-05-19T04:26:13;6.90;99.90
19898;DHT22;10111;50.814;4.572;2023-05-19T04:28:43;6.90;99.90
19898;DHT22;10111;50.814;4.572;2023-05-19T04:31:15;6.90;99.90
19898;DHT22;10111;50.814;4.572;2023-05-19T04:33:40;6.90;99.90
19898;DHT22;10111;50.814;4.572;2023-05-19T04:36:07;6.90;99.90
19898;DHT22;10111;50.814;4.572;2023-05-19T04:38:35;7.00;99.90
19898;DHT22;10111;50.814;4.572;2023-05-19T04:41:02;7.00;99.90
19898;DHT22;10111;50.814;4.572;2023-05-19T04:43:27;7.00;99.90
19898;DHT22;10111;50.814;4.572;2023-05-19T04:45:53;7.10;99.90
19898;DHT22;10111;50.814;4.572;2023-05-19T04:48:19;7.10;99.90
19898;DHT22;10111;50.814;4.572;2023-05-19T04:50:48;7.20;99.90
19898;DHT22;10111;50.814;4.572;2023-05-19T04:53:16;7.30;99.90
19898;DHT22;10111;50.814;4.572;2023-05-19T04:55:42;7.40;99.90
19898;DHT22;10111;50.814;4.572;2023-05-19T04:58:08;7.50;99.90
19898;DHT22;10111;50.814;4.572;2023-05-19T05:00:35;7.60;99.90
19898;DHT22;10111;50.814;4.572;2023-05-19T05:03:01;7.70;99.90
19898;DHT22;10111;50.814;4.572;2023-05-19T05:05:30;7.90;99.90
19898;DHT22;10111;50.814;4.572;2023-05-19T05:07:56;8.00;99.90
19898;DHT22;10111;50.814;4.572;2023-05-19T05:10:22;8.10;99.90
19898;DHT22;10111;50.814;4.572;2023-05-19T05:12:48;8.30;99.90
19898;DHT22;10111;50.814;4.572;2023-05-19T05:15:14;8.50;99.90
19898;DHT22;10111;50.814;4.572;2023-05-19T05:17:40;8.70;99.90
19898;DHT22;10111;50.814;4.572;2023-05-19T05:20:06;8.90;99.90
19898;DHT22;10111;50.814;4.572;2023-05-19T05:22:32;9.10;99.90
19898;DHT22;10111;50.814;4.572;2023-05-19T05:24:59;9.10;99.90
19898;DHT22;10111;50.814;4.572;2023-05-19T05:27:25;9.20;99.90
19898;DHT22;10111;50.814;4.572;2023-05-19T05:29:52;9.20;99.90
19898;DHT22;10111;50.814;4.572;2023-05-19T05:32:17;9.50;99.90
19898;DHT22;10111;50.814;4.572;2023-05-19T05:34:43;9.80;99.90
19898;DHT22;10111;50.814;4.572;2023-05-19T05:37:09;9.90;99.90
19898;DHT22;10111;50.814;4.572;2023-05-19T05:39:35;10.20;99.90
19898;DHT22;10111;50.814;4.572;2023-05-19T05:42:01;10.40;99.90
19898;DHT22;10111;50.814;4.572;2023-05-19T05:44:26;10.70;99.90
19898;DHT22;10111;50.814;4.572;2023-05-19T05:46:52;10.80;99.90
19898;DHT22;10111;50.814;4.572;2023-05-19T05:49:18;10.80;99.90
19898;DHT22;10111;50.814;4.572;2023-05-19T05:51:44;10.80;99.90
19898;DHT22;10111;50.814;4.572;2023-05-19T05:54:11;10.70;99.90
19898;DHT22;10111;50.814;4.572;2023-05-19T05:56:37;10.70;99.90
19898;DHT22;10111;50.814;4.572;2023-05-19T05:59:03;10.80;99.90
19898;DHT22;10111;50.814;4.572;2023-05-19T06:01:30;10.90;99.90
19898;DHT22;10111;50.814;4.572;2023-05-19T06:03:56;11.20;99.90
19898;DHT22;10111;50.814;4.572;2023-05-19T06:06:21;11.20;99.90
19898;DHT22;10111;50.814;4.572;2023-05-19T06:08:47;11.20;99.90
19898;DHT22;10111;50.814;4.572;2023-05-19T06:11:13;11.20;99.90
19898;DHT22;10111;50.814;4.572;2023-05-19T06:13:39;11.30;99.90
19898;DHT22;10111;50.814;4.572;2023-05-19T06:16:06;11.20;99.90
19898;DHT22;10111;50.814;4.572;2023-05-19T06:18:32;11.30;99.90
19898;DHT22;10111;50.814;4.572;2023-05-19T06:20:57;11.30;99.90
19898;DHT22;10111;50.814;4.572;2023-05-19T06:23:23;11.40;99.90
19898;DHT22;10111;50.814;4.572;2023-05-19T06:25:51;11.40;99.90
19898;DHT22;10111;50.814;4.572;2023-05-19T06:28:16;11.50;99.90
19898;DHT22;10111;50.814;4.572;2023-05-19T06:30:42;11.60;99.90
19898;DHT22;10111;50.814;4.572;2023-05-19T06:33:08;11.80;99.90
19898;DHT22;10111;50.814;4.572;2023-05-19T06:35:33;11.90;99.90
19898;DHT22;10111;50.814;4.572;2023-05-19T06:37:59;12.00;99.90
19898;DHT22;10111;50.814;4.572;2023-05-19T06:40:25;12.20;99.90
19898;DHT22;10111;50.814;4.572;2023-05-19T06:42:50;12.20;99.90
19898;DHT22;10111;50.814;4.572;2023-05-19T06:45:16;12.30;99.90
19898;DHT22;10111;50.814;4.572;2023-05-19T06:47:46;12.50;99.90
19898;DHT22;10111;50.814;4.572;2023-05-19T06:50:12;12.70;99.90
19898;DHT22;10111;50.814;4.572;2023-05-19T06:52:37;12.80;99.90
19898;DHT22;10111;50.814;4.572;2023-05-19T06:55:03;13.00;99.90
19898;DHT22;10111;50.814;4.572;2023-05-19T06:57:29;12.90;99.90
19898;DHT22;10111;50.814;4.572;2023-05-19T06:59:55;13.10;99.90
19898;DHT22;10111;50.814;4.572;2023-05-19T07:02:20;13.30;99.90
19898;DHT22;10111;50.814;4.572;2023-05-19T07:04:46;13.40;99.90
19898;DHT22;10111;50.814;4.572;2023-05-19T07:07:12;13.60;99.90
19898;DHT22;10111;50.814;4.572;2023-05-19T07:09:38;13.80;99.90
19898;DHT22;10111;50.814;4.572;2023-05-19T07:12:04;13.80;99.90
19898;DHT22;10111;50.814;4.572;2023-05-19T07:14:30;13.90;99.90
19898;DHT22;10111;50.814;4.572;2023-05-19T07:16:56;14.00;99.90
19898;DHT22;10111;50.814;4.572;2023-05-19T07:19:22;14.00;99.90
19898;DHT22;10111;50.814;4.572;2023-05-19T07:21:48;14.20;99.90
19898;DHT22;10111;50.814;4.572;2023-05-19T07:24:14;14.00;99.90
19898;DHT22;10111;50.814;4.572;2023-05-19T07:26:40;14.30;99.90
19898;DHT22;10111;50.814;4.572;2023-05-19T07:29:07;14.30;99.90
19898;DHT22;10111;50.814;4.572;2023-05-19T07:31:32;14.30;99.90
19898;DHT22;10111;50.814;4.572;2023-05-19T07:33:58;14.50;99.90
19898;DHT22;10111;50.814;4.572;2023-05-19T07:36:24;14.80;99.90
19898;DHT22;10111;50.814;4.572;2023-05-19T07:38:50;15.00;99.90
19898;DHT22;10111;50.814;4.572;2023-05-19T07:41:15;15.20;99.90
19898;DHT22;10111;50.814;4.572;2023-05-19T07:43:41;15.20;99.90
19898;DHT22;10111;50.814;4.572;2023-05-19T07:46:07;15.70;99.90
19898;DHT22;10111;50.814;4.572;2023-05-19T07:48:33;16.00;99.90
19898;DHT22;10111;50.814;4.572;2023-05-19T07:50:58;15.90;99.90
19898;DHT22;10111;50.814;4.572;2023-05-19T07:53:24;16.00;99.90
19898;DHT22;10111;50.814;4.572;2023-05-19T07:55:50;16.10;99.90
19898;DHT22;10111;50.814;4.572;2023-05-19T07:58:16;16.10;99.90
19898;DHT22;10111;50.814;4.572;2023-05-19T08:00:42;16.10;99.90
19898;DHT22;10111;50.814;4.572;2023-05-19T08:03:08;16.00;99.90
19898;DHT22;10111;50.814;4.572;2023-05-19T08:05:34;16.30;99.90
19898;DHT22;10111;50.814;4.572;2023-05-19T08:08:01;16.00;99.90
19898;DHT22;10111;50.814;4.572;2023-05-19T08:10:27;16.50;99.90
19898;DHT22;10111;50.814;4.572;2023-05-19T08:12:53;16.40;99.90
19898;DHT22;10111;50.814;4.572;2023-05-19T08:15:19;16.30;99.90
19898;DHT22;10111;50.814;4.572;2023-05-19T08:17:45;16.60;99.90
19898;DHT22;10111;50.814;4.572;2023-05-19T08:20:11;16.50;99.90
19898;DHT22;10111;50.814;4.572;2023-05-19T08:22:37;16.40;99.90
19898;DHT22;10111;50.814;4.572;2023-05-19T08:25:03;16.70;99.90
19898;DHT22;10111;50.814;4.572;2023-05-19T08:27:32;16.80;99.90
19898;DHT22;10111;50.814;4.572;2023-05-19T08:29:58;16.90;99.90
19898;DHT22;10111;50.814;4.572;2023-05-19T08:32:23;17.10;99.90
19898;DHT22;10111;50.814;4.572;2023-05-19T08:34:49;17.40;99.90
19898;DHT22;10111;50.814;4.572;2023-05-19T08:37:15;17.20;99.90
19898;DHT22;10111;50.814;4.572;2023-05-19T08:39:40;17.20;99.90
19898;DHT22;10111;50.814;4.572;2023-05-19T08:42:06;17.20;99.90
19898;DHT22;10111;50.814;4.572;2023-05-19T08:44:36;17.30;99.90
19898;DHT22;10111;50.814;4.572;2023-05-19T08:47:04;17.40;99.90
19898;DHT22;10111;50.814;4.572;2023-05-19T08:49:34;17.50;99.90
19898;DHT22;10111;50.814;4.572;2023-05-19T08:55:11;18.10;99.90
19898;DHT22;10111;50.814;4.572;2023-05-19T08:57:37;17.90;99.90
19898;DHT22;10111;50.814;4.572;2023-05-19T09:00:05;18.10;99.90
19898;DHT22;10111;50.814;4.572;2023-05-19T09:02:37;18.40;99.90
19898;DHT22;10111;50.814;4.572;2023-05-19T09:05:04;18.20;99.90
19898;DHT22;10111;50.814;4.572;2023-05-19T09:07:35;17.80;99.90
19898;DHT22;10111;50.814;4.572;2023-05-19T09:10:02;17.80;99.90
19898;DHT22;10111;50.814;4.572;2023-05-19T09:12:28;18.40;99.90
19898;DHT22;10111;50.814;4.572;2023-05-19T09:14:54;18.60;99.90
19898;DHT22;10111;50.814;4.572;2023-05-19T09:17:21;18.30;99.90
19898;DHT22;10111;50.814;4.572;2023-05-19T09:19:47;18.30;99.90
19898;DHT22;10111;50.814;4.572;2023-05-19T09:22:15;18.50;99.90
19898;DHT22;10111;50.814;4.572;2023-05-19T09:24:43;18.20;99.90
19898;DHT22;10111;50.814;4.572;2023-05-19T09:27:09;18.20;99.90
19898;DHT22;10111;50.814;4.572;2023-05-19T09:29:38;18.00;99.90
19898;DHT22;10111;50.814;4.572;2023-05-19T09:32:04;18.00;99.90
19898;DHT22;10111;50.814;4.572;2023-05-19T09:34:30;17.90;99.90
19898;DHT22;10111;50.814;4.572;2023-05-19T09:36:56;18.40;99.90
19898;DHT22;10111;50.814;4.572;2023-05-19T09:39:24;18.60;99.90
19898;DHT22;10111;50.814;4.572;2023-05-19T09:41:54;18.20;99.90
19898;DHT22;10111;50.814;4.572;2023-05-19T09:44:21;17.80;99.90
19898;DHT22;10111;50.814;4.572;2023-05-19T09:46:52;17.90;99.90
19898;DHT22;10111;50.814;4.572;2023-05-19T09:49:22;18.20;99.90
19898;DHT22;10111;50.814;4.572;2023-05-19T09:52:08;18.40;99.90
19898;DHT22;10111;50.814;4.572;2023-05-19T09:54:34;18.40;99.90
19898;DHT22;10111;50.814;4.572;2023-05-19T09:57:03;18.30;99.90
19898;DHT22;10111;50.814;4.572;2023-05-19T09:59:30;18.00;99.90
19898;DHT22;10111;50.814;4.572;2023-05-19T10:01:58;18.00;99.90
19898;DHT22;10111;50.814;4.572;2023-05-19T10:04:26;18.20;99.90
19898;DHT22;10111;50.814;4.572;2023-05-19T10:06:53;18.20;99.90
19898;DHT22;10111;50.814;4.572;2023-05-19T10:09:23;17.80;99.90
19898;DHT22;10111;50.814;4.572;2023-05-19T10:11:53;17.70;99.90
19898;DHT22;10111;50.814;4.572;2023-05-19T10:14:26;17.30;99.90
19898;DHT22;10111;50.814;4.572;2023-05-19T10:16:58;17.10;99.90
19898;DHT22;10111;50.814;4.572;2023-05-19T10:19:25;17.20;99.90
19898;DHT22;10111;50.814;4.572;2023-05-19T10:21:51;17.70;99.90
19898;DHT22;10111;50.814;4.572;2023-05-19T10:24:17;18.10;99.90
19898;DHT22;10111;50.814;4.572;2023-05-19T10:26:47;18.20;99.90
19898;DHT22;10111;50.814;4.572;2023-05-19T10:29:17;18.00;99.90
19898;DHT22;10111;50.814;4.572;2023-05-19T10:31:45;18.00;99.90
19898;DHT22;10111;50.814;4.572;2023-05-19T10:36:47;17.80;99.90
19898;DHT22;10111;50.814;4.572;2023-05-19T10:47:10;18.30;99.90
19898;DHT22;10111;50.814;4.572;2023-05-19T10:49:36;18.50;99.90
19898;DHT22;10111;50.814;4.572;2023-05-19T10:52:02;18.50;99.90
19898;DHT22;10111;50.814;4.572;2023-05-19T10:54:42;18.30;99.90
19898;DHT22;10111;50.814;4.572;2023-05-19T10:57:17;18.30;99.90
19898;DHT22;10111;50.814;4.572;2023-05-19T10:59:44;18.20;99.90
19898;DHT22;10111;50.814;4.572;2023-05-19T11:02:10;18.10;99.90
19898;DHT22;10111;50.814;4.572;2023-05-19T11:05:09;18.20;99.90
19898;DHT22;10111;50.814;4.572;2023-05-19T11:07:35;18.00;99.90
19898;DHT22;10111;50.814;4.572;2023-05-19T11:10:05;18.00;99.90
19898;DHT22;10111;50.814;4.572;2023-05-19T11:12:39;17.90;99.90
19898;DHT22;10111;50.814;4.572;2023-05-19T11:15:12;17.90;99.90
19898;DHT22;10111;50.814;4.572;2023-05-19T11:17:39;18.10;99.90
19898;DHT22;10111;50.814;4.572;2023-05-19T11:20:08;18.20;99.90
19898;DHT22;10111;50.814;4.572;2023-05-19T11:22:36;18.20;99.90
19898;DHT22;10111;50.814;4.572;2023-05-19T11:25:04;17.90;99.90
19898;DHT22;10111;50.814;4.572;2023-05-19T11:27:33;17.90;99.90
19898;DHT22;10111;50.814;4.572;2023-05-19T11:30:01;18.10;99.90
19898;DHT22;10111;50.814;4.572;2023-05-19T11:32:30;18.00;99.90
19898;DHT22;10111;50.814;4.572;2023-05-19T11:34:56;18.10;99.90
19898;DHT22;10111;50.814;4.572;2023-05-19T11:37:22;18.10;99.90
19898;DHT22;10111;50.814;4.572;2023-05-19T11:39:48;18.00;99.90
19898;DHT22;10111;50.814;4.572;2023-05-19T11:42:14;18.00;99.90
19898;DHT22;10111;50.814;4.572;2023-05-19T11:44:40;18.10;99.90
19898;DHT22;10111;50.814;4.572;2023-05-19T11:47:06;18.10;99.90
19898;DHT22;10111;50.814;4.572;2023-05-19T11:49:32;18.00;99.90
19898;DHT22;10111;50.814;4.572;2023-05-19T11:52:01;17.90;99.90
19898;DHT22;10111;50.814;4.572;2023-05-19T11:54:32;17.90;99.90
19898;DHT22;10111;50.814;4.572;2023-05-19T11:57:02;18.00;99.90
19898;DHT22;10111;50.814;4.572;2023-05-19T11:59:32;18.20;99.90
19898;DHT22;10111;50.814;4.572;2023-05-19T12:02:02;18.40;99.90
19898;DHT22;10111;50.814;4.572;2023-05-19T12:04:38;18.40;99.90
19898;DHT22;10111;50.814;4.572;2023-05-19T12:07:04;18.00;99.90
19898;DHT22;10111;50.814;4.572;2023-05-19T12:09:29;18.00;99.90
19898;DHT22;10111;50.814;4.572;2023-05-19T12:11:55;18.00;99.90
19898;DHT22;10111;50.814;4.572;2023-05-19T12:14:21;18.10;99.90
19898;DHT22;10111;50.814;4.572;2023-05-19T12:16:46;18.20;99.90
19898;DHT22;10111;50.814;4.572;2023-05-19T12:19:12;18.00;99.90
19898;DHT22;10111;50.814;4.572;2023-05-19T12:21:38;18.00;99.90
19898;DHT22;10111;50.814;4.572;2023-05-19T12:24:05;18.20;99.90
19898;DHT22;10111;50.814;4.572;2023-05-19T12:26:30;18.30;99.90
19898;DHT22;10111;50.814;4.572;2023-05-19T12:28:57;18.40;99.90
19898;DHT22;10111;50.814;4.572;2023-05-19T12:31:23;18.20;99.90
19898;DHT22;10111;50.814;4.572;2023-05-19T12:33:49;18.30;99.90
19898;DHT22;10111;50.814;4.572;2023-05-19T12:36:17;18.40;99.90
19898;DHT22;10111;50.814;4.572;2023-05-19T12:38:44;18.50;99.90
19898;DHT22;10111;50.814;4.572;2023-05-19T12:41:13;18.60;99.90
19898;DHT22;10111;50.814;4.572;2023-05-19T12:43:39;18.70;99.90
19898;DHT22;10111;50.814;4.572;2023-05-19T12:46:09;18.70;99.90
19898;DHT22;10111;50.814;4.572;2023-05-19T12:48:40;18.50;99.90
19898;DHT22;10111;50.814;4.572;2023-05-19T12:51:06;18.40;99.90
19898;DHT22;10111;50.814;4.572;2023-05-19T12:53:32;18.50;99.90
19898;DHT22;10111;50.814;4.572;2023-05-19T12:55:58;18.60;99.90
19898;DHT22;10111;50.814;4.572;2023-05-19T12:58:23;18.70;99.90
19898;DHT22;10111;50.814;4.572;2023-05-19T13:00:49;18.70;99.90
19898;DHT22;10111;50.814;4.572;2023-05-19T13:03:17;18.50;99.90
19898;DHT22;10111;50.814;4.572;2023-05-19T13:05:45;18.50;99.90
19898;DHT22;10111;50.814;4.572;2023-05-19T13:08:13;18.50;99.90
19898;DHT22;10111;50.814;4.572;2023-05-19T13:10:40;18.50;99.90
19898;DHT22;10111;50.814;4.572;2023-05-19T13:13:07;18.60;99.90
19898;DHT22;10111;50.814;4.572;2023-05-19T13:15:35;18.60;99.90
19898;DHT22;10111;50.814;4.572;2023-05-19T13:18:04;18.60;99.90
19898;DHT22;10111;50.814;4.572;2023-05-19T13:20:31;18.60;99.90
19898;DHT22;10111;50.814;4.572;2023-05-19T13:22:57;18.40;99.90
19898;DHT22;10111;50.814;4.572;2023-05-19T13:25:24;18.50;99.90
19898;DHT22;10111;50.814;4.572;2023-05-19T13:27:50;18.70;99.90
19898;DHT22;10111;50.814;4.572;2023-05-19T13:30:17;18.60;99.90
19898;DHT22;10111;50.814;4.572;2023-05-19T13:32:43;18.80;99.90
19898;DHT22;10111;50.814;4.572;2023-05-19T13:35:09;18.70;99.90
19898;DHT22;10111;50.814;4.572;2023-05-19T13:37:35;18.80;99.90
19898;DHT22;10111;50.814;4.572;2023-05-19T13:40:01;18.80;99.90
19898;DHT22;10111;50.814;4.572;2023-05-19T13:42:28;18.80;99.90
19898;DHT22;10111;50.814;4.572;2023-05-19T13:44:54;18.90;99.90
19898;DHT22;10111;50.814;4.572;2023-05-19T13:47:23;19.00;99.90
19898;DHT22;10111;50.814;4.572;2023-05-19T13:49:50;19.00;99.90
19898;DHT22;10111;50.814;4.572;2023-05-19T13:52:16;19.10;99.90
19898;DHT22;10111;50.814;4.572;2023-05-19T13:54:42;18.90;99.90
19898;DHT22;10111;50.814;4.572;2023-05-19T13:57:08;18.80;99.90
19898;DHT22;10111;50.814;4.572;2023-05-19T13:59:34;18.90;99.90
19898;DHT22;10111;50.814;4.572;2023-05-19T14:02:00;18.80;99.90
19898;DHT22;10111;50.814;4.572;2023-05-19T14:04:29;18.80;99.90
19898;DHT22;10111;50.814;4.572;2023-05-19T14:06:55;18.70;99.90
19898;DHT22;10111;50.814;4.572;2023-05-19T14:09:21;18.70;99.90
19898;DHT22;10111;50.814;4.572;2023-05-19T14:11:47;18.70;99.90
19898;DHT22;10111;50.814;4.572;2023-05-19T14:14:13;18.70;99.90
19898;DHT22;10111;50.814;4.572;2023-05-19T14:16:41;18.80;99.90
19898;DHT22;10111;50.814;4.572;2023-05-19T14:19:07;18.80;99.90
19898;DHT22;10111;50.814;4.572;2023-05-19T14:21:33;18.80;99.90
19898;DHT22;10111;50.814;4.572;2023-05-19T14:23:58;18.90;99.90
19898;DHT22;10111;50.814;4.572;2023-05-19T14:26:25;18.80;99.90
19898;DHT22;10111;50.814;4.572;2023-05-19T14:28:51;18.90;99.90
19898;DHT22;10111;50.814;4.572;2023-05-19T14:31:17;18.70;99.90
19898;DHT22;10111;50.814;4.572;2023-05-19T14:33:42;18.70;99.90
19898;DHT22;10111;50.814;4.572;2023-05-19T14:36:09;18.80;99.90
19898;DHT22;10111;50.814;4.572;2023-05-19T14:38:35;18.90;99.90
19898;DHT22;10111;50.814;4.572;2023-05-19T14:41:01;18.90;99.90
19898;DHT22;10111;50.814;4.572;2023-05-19T14:43:26;18.90;99.90
19898;DHT22;10111;50.814;4.572;2023-05-19T14:45:52;18.90;99.90
19898;DHT22;10111;50.814;4.572;2023-05-19T14:48:18;19.00;99.90
19898;DHT22;10111;50.814;4.572;2023-05-19T14:50:45;18.90;99.90
19898;DHT22;10111;50.814;4.572;2023-05-19T14:53:12;19.00;99.90
19898;DHT22;10111;50.814;4.572;2023-05-19T14:55:38;19.10;99.90
19898;DHT22;10111;50.814;4.572;2023-05-19T14:58:04;19.20;99.90
19898;DHT22;10111;50.814;4.572;2023-05-19T15:00:29;19.10;99.90
19898;DHT22;10111;50.814;4.572;2023-05-19T15:02:55;19.00;99.90
19898;DHT22;10111;50.814;4.572;2023-05-19T15:05:21;19.00;99.90
19898;DHT22;10111;50.814;4.572;2023-05-19T15:07:48;19.10;99.90
19898;DHT22;10111;50.814;4.572;2023-05-19T15:10:15;19.00;99.90
19898;DHT22;10111;50.814;4.572;2023-05-19T15:12:41;19.00;99.90
19898;DHT22;10111;50.814;4.572;2023-05-19T15:15:07;19.10;99.90
19898;DHT22;10111;50.814;4.572;2023-05-19T15:17:33;19.10;99.90
19898;DHT22;10111;50.814;4.572;2023-05-19T15:19:59;19.10;99.90
19898;DHT22;10111;50.814;4.572;2023-05-19T15:22:25;19.00;99.90
19898;DHT22;10111;50.814;4.572;2023-05-19T15:24:50;19.00;99.90
19898;DHT22;10111;50.814;4.572;2023-05-19T15:27:16;19.00;99.90
19898;DHT22;10111;50.814;4.572;2023-05-19T15:29:42;19.10;99.90
19898;DHT22;10111;50.814;4.572;2023-05-19T15:32:08;19.10;99.90
19898;DHT22;10111;50.814;4.572;2023-05-19T15:34:33;19.10;99.90
19898;DHT22;10111;50.814;4.572;2023-05-19T15:36:59;19.10;99.90
19898;DHT22;10111;50.814;4.572;2023-05-19T15:39:25;19.20;99.90
19898;DHT22;10111;50.814;4.572;2023-05-19T15:41:50;19.10;99.90
19898;DHT22;10111;50.814;4.572;2023-05-19T15:44:16;19.00;99.90
19898;DHT22;10111;50.814;4.572;2023-05-19T15:46:42;19.00;99.90
19898;DHT22;10111;50.814;4.572;2023-05-19T15:49:09;19.00;99.90
19898;DHT22;10111;50.814;4.572;2023-05-19T15:51:35;18.90;99.90
19898;DHT22;10111;50.814;4.572;2023-05-19T15:54:01;18.90;99.90
19898;DHT22;10111;50.814;4.572;2023-05-19T15:56:26;18.80;99.90
19898;DHT22;10111;50.814;4.572;2023-05-19T15:58:52;18.70;99.90
19898;DHT22;10111;50.814;4.572;2023-05-19T16:01:17;18.80;99.90
19898;DHT22;10111;50.814;4.572;2023-05-19T16:03:44;18.80;99.90
19898;DHT22;10111;50.814;4.572;2023-05-19T16:06:10;18.70;99.90
19898;DHT22;10111;50.814;4.572;2023-05-19T16:08:35;18.70;99.90